Shamrock, Texas
Current Conditions -  °F | °C
As of 6:35 AM on Sunday 21 Dec 2014 (Local Time) from KHHF Reporting Station
Overcast Overcast  
Wind Chill: 38°   Ceiling: 600
Heat Index: 42°   Visibility: 7mi
Dew Point: 41°   Wind: 7mph
Humidity: 96%   Direction: 170°S
Pressure: 29.89"   Gusts: NA
Location:  35.21°N, 100.25°W
Report Text: KHHF 211235Z AUTO 17006KT 7SM OVC006 06/05 A2989 RMK AO2 T00560050
Loading
Personal Weather Stations






























Interactive Weather Map New forecast layout! Learn more

10-Day Weather Forecast

Advertisements
Track Severe Weather on mobile